Time;durP1;ratioP1;P1;durP2;ratioP2;P2;SDS_P1;SDS_P2;PMS_P1;PMS_P2;Temp;Humidity;BMP_temperature;BMP_pressure;BME280_temperature;BME280_humidity;BME280_pressure;Samples;Min_cycle;Max_cycle;Signal;HPM_P1;HPM_P2
2024/01/24 00:01:33;;;;;;;6.72;2.53;;;9.70;99.90;;;;;;4994448;28;20062;-42
2024/01/24 00:03:59;;;;;;;7.28;2.90;;;9.70;99.90;;;;;;4982589;28;20448;-43
2024/01/24 00:06:25;;;;;;;12.77;2.65;;;9.80;99.90;;;;;;4974983;28;20019;-42
2024/01/24 00:08:51;;;;;;;7.50;2.40;;;9.80;99.90;;;;;;5000062;28;20034;-45
2024/01/24 00:11:17;;;;;;;8.93;2.30;;;9.80;99.90;;;;;;5013990;28;20109;-42
2024/01/24 00:13:42;;;;;;;9.95;2.42;;;9.80;99.90;;;;;;5013764;28;20512;-42
2024/01/24 00:16:08;;;;;;;9.07;2.08;;;9.90;99.90;;;;;;5012552;28;20026;-42
2024/01/24 00:18:34;;;;;;;9.10;1.98;;;9.90;99.90;;;;;;5013298;28;20014;-45
2024/01/24 00:20:59;;;;;;;14.60;2.28;;;9.90;99.90;;;;;;5013247;28;20022;-45
2024/01/24 00:23:25;;;;;;;7.93;2.15;;;9.90;99.90;;;;;;5013663;28;20036;-39
2024/01/24 00:25:51;;;;;;;15.38;5.70;;;9.90;99.90;;;;;;5013650;28;20029;-42
2024/01/24 00:28:17;;;;;;;10.32;1.92;;;10.00;99.90;;;;;;5013751;28;20033;-41
2024/01/24 00:30:44;;;;;;;13.82;2.50;;;10.10;99.90;;;;;;5014376;28;20034;-43
2024/01/24 00:33:10;;;;;;;10.07;2.47;;;10.10;99.90;;;;;;5013520;28;20034;-41
2024/01/24 00:35:36;;;;;;;3.80;1.92;;;10.10;99.90;;;;;;5012109;28;20092;-43
2024/01/24 00:38:02;;;;;;;11.50;2.75;;;10.20;99.90;;;;;;5013035;28;20041;-43
2024/01/24 00:40:27;;;;;;;8.80;2.30;;;10.20;99.90;;;;;;5014162;28;20036;-42
2024/01/24 00:42:53;;;;;;;9.98;3.03;;;10.10;99.90;;;;;;5013927;28;20030;-42
2024/01/24 00:45:18;;;;;;;9.95;2.58;;;10.00;99.90;;;;;;5012065;28;20026;-43
2024/01/24 00:47:44;;;;;;;10.90;2.67;;;10.00;99.90;;;;;;5012962;28;20022;-44
2024/01/24 00:50:09;;;;;;;10.85;2.15;;;10.00;99.90;;;;;;5013081;28;20041;-45
2024/01/24 00:52:35;;;;;;;7.03;2.55;;;9.90;99.90;;;;;;5013009;28;20033;-45
2024/01/24 00:55:01;;;;;;;7.35;1.80;;;9.90;99.90;;;;;;5011821;28;20049;-42
2024/01/24 00:57:26;;;;;;;9.98;2.75;;;9.90;99.90;;;;;;5012879;28;20379;-47
2024/01/24 00:59:52;;;;;;;12.05;2.75;;;10.00;99.90;;;;;;5027878;28;20091;-44
2024/01/24 01:02:17;;;;;;;7.50;1.92;;;10.00;99.90;;;;;;5032731;28;20025;-43
2024/01/24 01:04:43;;;;;;;10.48;2.08;;;10.00;99.90;;;;;;5032624;28;20032;-44
2024/01/24 01:07:09;;;;;;;9.77;2.67;;;10.10;99.90;;;;;;5032382;28;20490;-42
2024/01/24 01:09:35;;;;;;;5.03;1.38;;;10.10;99.90;;;;;;5032519;28;20375;-48
2024/01/24 01:12:01;;;;;;;7.68;1.63;;;10.10;99.90;;;;;;5032646;28;20028;-44
2024/01/24 01:14:27;;;;;;;11.18;2.33;;;10.20;99.90;;;;;;5014687;28;20025;-45
2024/01/24 01:16:53;;;;;;;4.70;1.38;;;10.30;99.90;;;;;;5031060;28;20052;-41
2024/01/24 01:19:19;;;;;;;3.78;1.85;;;10.40;99.90;;;;;;5032073;28;20018;-43
2024/01/24 01:21:44;;;;;;;4.85;1.30;;;10.30;99.90;;;;;;5014630;28;20091;-44
2024/01/24 01:24:10;;;;;;;4.13;1.63;;;10.40;99.90;;;;;;5032287;28;20065;-44
2024/01/24 01:26:35;;;;;;;4.15;1.55;;;10.40;99.90;;;;;;5032321;28;20382;-42
2024/01/24 01:29:01;;;;;;;5.60;2.00;;;10.40;99.90;;;;;;5031987;28;20040;-43
2024/01/24 01:31:27;;;;;;;3.20;1.55;;;10.40;99.90;;;;;;5032177;28;20076;-44
2024/01/24 01:33:53;;;;;;;5.45;2.00;;;10.40;99.90;;;;;;5032154;28;20399;-43
2024/01/24 01:36:19;;;;;;;3.08;1.30;;;10.40;99.90;;;;;;5031978;28;20022;-43
2024/01/24 01:38:44;;;;;;;7.03;1.73;;;10.50;99.90;;;;;;5031766;28;20021;-43
2024/01/24 01:41:10;;;;;;;8.63;1.75;;;10.50;99.90;;;;;;5032079;28;20048;-43
2024/01/24 01:43:35;;;;;;;1.40;1.20;;;10.50;99.90;;;;;;5032043;28;20053;-43
2024/01/24 01:46:06;;;;;;;2.85;1.23;;;10.50;99.90;;;;;;5032058;28;20031;-43
2024/01/24 01:48:33;;;;;;;6.18;1.65;;;10.50;99.90;;;;;;5032053;28;20048;-42
2024/01/24 01:50:59;;;;;;;2.70;1.20;;;10.50;99.90;;;;;;5032024;28;20075;-44
2024/01/24 01:53:25;;;;;;;2.63;1.15;;;10.50;99.90;;;;;;5031821;28;20490;-46
2024/01/24 01:55:50;;;;;;;1.85;1.20;;;10.50;99.90;;;;;;5031850;28;20025;-46
2024/01/24 01:58:16;;;;;;;6.90;1.70;;;10.60;99.90;;;;;;5031553;28;20104;-42
2024/01/24 02:00:46;;;;;;;1.50;1.00;;;10.60;99.90;;;;;;5032168;28;20491;-44
2024/01/24 02:03:12;;;;;;;2.55;1.20;;;10.70;99.90;;;;;;5014400;28;20494;-41
2024/01/24 02:05:39;;;;;;;2.63;1.67;;;;;;;;;;5032223;28;20030;-43
2024/01/24 02:08:06;;;;;;;4.05;1.17;;;10.70;99.90;;;;;;5031266;28;20060;-47
2024/01/24 02:10:32;;;;;;;5.38;1.42;;;10.70;99.90;;;;;;5031884;28;20097;-43
2024/01/24 02:12:59;;;;;;;2.67;1.00;;;10.70;99.90;;;;;;5032173;28;20139;-43
2024/01/24 02:15:26;;;;;;;5.70;1.30;;;10.70;99.90;;;;;;5031634;28;20032;-44
2024/01/24 02:17:52;;;;;;;2.60;1.38;;;10.80;99.90;;;;;;5031131;28;20104;-42
2024/01/24 02:20:18;;;;;;;2.97;1.08;;;10.80;99.90;;;;;;5031477;28;20427;-43
2024/01/24 02:22:44;;;;;;;3.50;1.42;;;10.90;99.90;;;;;;5031469;28;20017;-45
2024/01/24 02:25:09;;;;;;;5.70;1.23;;;10.90;99.90;;;;;;5031483;28;20052;-43
2024/01/24 02:27:35;;;;;;;3.85;1.00;;;10.90;99.90;;;;;;5031257;28;20452;-43
2024/01/24 02:30:00;;;;;;;3.53;1.05;;;10.90;99.90;;;;;;5031446;28;20028;-43
2024/01/24 02:32:26;;;;;;;3.65;1.38;;;11.00;99.90;;;;;;5031334;28;20398;-45
2024/01/24 02:34:51;;;;;;;3.40;1.10;;;11.00;99.90;;;;;;5031247;28;20045;-44
2024/01/24 02:37:19;;;;;;;4.35;1.10;;;11.10;99.90;;;;;;5031000;28;20026;-46
2024/01/24 02:39:45;;;;;;;2.33;1.20;;;11.10;99.90;;;;;;5031975;28;20402;-42
2024/01/24 02:42:11;;;;;;;2.60;1.15;;;11.10;99.90;;;;;;5032345;28;20022;-42
2024/01/24 02:44:36;;;;;;;3.97;1.50;;;11.10;99.90;;;;;;5036351;28;20490;-43
2024/01/24 02:47:02;;;;;;;5.40;1.52;;;11.10;99.90;;;;;;5035654;28;20033;-40
2024/01/24 02:49:28;;;;;;;3.25;1.23;;;11.10;99.90;;;;;;5035814;28;20406;-44
2024/01/24 02:51:53;;;;;;;2.50;1.10;;;11.10;99.90;;;;;;5035637;28;20558;-40
2024/01/24 02:54:19;;;;;;;2.75;0.90;;;11.10;99.90;;;;;;5035179;28;20117;-47
2024/01/24 02:56:44;;;;;;;3.55;1.15;;;11.10;99.90;;;;;;5017387;28;20031;-45
2024/01/24 02:59:10;;;;;;;2.55;0.98;;;11.10;99.90;;;;;;5034797;28;20041;-45
2024/01/24 03:01:36;;;;;;;5.35;1.30;;;11.10;99.90;;;;;;5034957;28;20026;-45
2024/01/24 03:04:01;;;;;;;2.47;0.77;;;11.10;99.90;;;;;;5035071;28;20031;-44
2024/01/24 03:06:27;;;;;;;2.70;1.02;;;11.10;99.90;;;;;;5034934;28;20060;-42
2024/01/24 03:08:56;;;;;;;6.90;1.27;;;11.20;99.90;;;;;;5034779;28;20025;-42
2024/01/24 03:11:22;;;;;;;1.27;1.10;;;11.20;99.90;;;;;;5034971;28;20032;-44
2024/01/24 03:13:48;;;;;;;5.22;1.13;;;11.20;99.90;;;;;;5017133;28;20025;-42
2024/01/24 03:16:13;;;;;;;1.88;0.77;;;11.20;99.90;;;;;;5034634;28;20493;-46
2024/01/24 03:18:39;;;;;;;4.18;1.00;;;11.20;99.90;;;;;;5034590;28;20471;-43
2024/01/24 03:21:06;;;;;;;4.03;0.90;;;11.20;99.90;;;;;;5034908;28;20025;-45
2024/01/24 03:23:32;;;;;;;3.33;0.90;;;11.30;99.90;;;;;;5034832;28;20230;-43
2024/01/24 03:25:58;;;;;;;1.50;0.95;;;11.20;99.90;;;;;;5034774;28;20025;-43
2024/01/24 03:28:23;;;;;;;2.58;0.73;;;11.30;99.90;;;;;;5034389;28;20028;-44
2024/01/24 03:30:49;;;;;;;4.32;1.45;;;11.30;99.90;;;;;;5034694;28;20108;-43
2024/01/24 03:33:14;;;;;;;2.55;0.70;;;11.30;99.90;;;;;;5017013;28;20057;-47
2024/01/24 03:35:40;;;;;;;2.55;1.10;;;11.30;99.90;;;;;;5016940;28;20049;-44
2024/01/24 03:38:06;;;;;;;3.85;1.17;;;;;;;;;;5034565;28;20141;-44
2024/01/24 03:40:32;;;;;;;3.13;0.95;;;;;;;;;;5034859;28;20484;-42
2024/01/24 03:42:58;;;;;;;3.13;2.15;;;;;;;;;;5035053;28;20403;-43
2024/01/24 03:45:24;;;;;;;4.32;1.30;;;;;;;;;;5034712;28;20032;-43
2024/01/24 03:47:50;;;;;;;2.97;1.27;;;;;;;;;;5034835;28;20036;-43
2024/01/24 03:50:16;;;;;;;1.95;0.80;;;11.40;99.90;;;;;;5035213;28;20029;-42
2024/01/24 03:52:41;;;;;;;3.53;1.00;;;11.30;99.90;;;;;;5035387;28;20033;-44
2024/01/24 03:55:07;;;;;;;2.60;0.90;;;11.30;99.90;;;;;;5033992;28;20036;-44
2024/01/24 03:57:33;;;;;;;2.55;1.33;;;11.20;99.90;;;;;;5035012;28;20077;-43
2024/01/24 03:59:58;;;;;;;2.75;0.68;;;11.20;99.90;;;;;;5016517;28;20037;-43
2024/01/24 04:02:24;;;;;;;2.70;0.77;;;11.20;99.90;;;;;;5034126;28;20079;-42
2024/01/24 04:04:49;;;;;;;2.53;1.02;;;11.20;99.90;;;;;;5033955;28;20033;-45
2024/01/24 04:07:15;;;;;;;1.63;0.80;;;11.20;99.90;;;;;;5033563;28;20029;-43
2024/01/24 04:09:40;;;;;;;1.58;0.70;;;11.20;99.90;;;;;;5033874;28;20033;-45
2024/01/24 04:12:06;;;;;;;1.95;0.70;;;11.20;99.90;;;;;;5033867;28;20097;-43
2024/01/24 04:14:31;;;;;;;2.40;0.80;;;11.20;99.90;;;;;;5033520;28;20053;-42
2024/01/24 04:16:57;;;;;;;1.58;0.93;;;12.50;99.90;;;;;;5033533;28;20025;-39
2024/01/24 04:19:22;;;;;;;1.65;0.80;;;11.30;99.90;;;;;;5015748;28;20025;-42
2024/01/24 04:21:52;;;;;;;0.70;0.60;;;;;;;;;;5033729;28;20017;-42
2024/01/24 04:24:20;;;;;;;0.52;0.52;;;;;;;;;;5033708;28;20486;-40
2024/01/24 04:26:46;;;;;;;1.55;0.73;;;;;;;;;;5016644;28;20037;-42
2024/01/24 04:29:11;;;;;;;2.22;0.90;;;11.20;99.90;;;;;;5034058;28;20055;-42
2024/01/24 04:31:37;;;;;;;1.92;0.73;;;11.20;99.90;;;;;;5034523;28;20375;-41
2024/01/24 04:34:02;;;;;;;0.98;0.73;;;11.20;99.90;;;;;;5034122;28;20036;-43
2024/01/24 04:36:28;;;;;;;4.22;0.90;;;11.20;99.90;;;;;;5034099;28;20029;-51
2024/01/24 04:38:53;;;;;;;1.38;0.63;;;11.20;99.90;;;;;;5033306;28;20025;-44
2024/01/24 04:41:19;;;;;;;0.73;0.70;;;;;;;;;;5033380;28;20021;-42
2024/01/24 04:43:45;;;;;;;2.53;1.05;;;;;;;;;;5015608;28;20402;-45
2024/01/24 04:46:15;;;;;;;1.25;0.70;;;;;;;;;;5033369;28;20025;-45
2024/01/24 04:48:45;;;;;;;0.75;0.70;;;;;;;;;;5033007;28;20036;-42
2024/01/24 04:51:11;;;;;;;0.68;0.68;;;;;;;;;;5033605;28;20033;-42
2024/01/24 04:53:37;;;;;;;1.27;0.70;;;;;;;;;;5033087;28;20398;-42
2024/01/24 04:56:03;;;;;;;1.85;0.77;;;11.40;99.90;;;;;;5032928;28;20032;-44
2024/01/24 04:58:29;;;;;;;1.30;0.98;;;11.40;99.90;;;;;;5032435;28;20449;-44
2024/01/24 05:00:54;;;;;;;1.80;1.00;;;11.40;99.90;;;;;;5033025;28;20022;-40
2024/01/24 05:03:21;;;;;;;1.75;1.02;;;11.40;99.90;;;;;;5032860;28;20037;-44
2024/01/24 05:05:46;;;;;;;1.35;0.60;;;11.40;99.90;;;;;;5032409;28;20052;-42
2024/01/24 05:08:12;;;;;;;0.85;0.57;;;11.40;99.90;;;;;;5032435;28;20068;-43
2024/01/24 05:10:37;;;;;;;1.90;0.60;;;11.40;99.90;;;;;;5032793;28;20026;-44
2024/01/24 05:13:03;;;;;;;1.67;0.70;;;11.40;99.90;;;;;;5032774;28;20390;-41
2024/01/24 05:15:28;;;;;;;1.60;0.73;;;11.40;99.90;;;;;;5033255;28;20506;-42
2024/01/24 05:17:55;;;;;;;0.50;0.50;;;11.40;99.90;;;;;;5032207;28;20025;-42
2024/01/24 05:20:20;;;;;;;0.50;0.50;;;11.40;99.90;;;;;;5032700;28;20049;-42
2024/01/24 05:22:46;;;;;;;0.70;0.60;;;11.40;99.90;;;;;;5032479;28;20060;-42
2024/01/24 05:25:12;;;;;;;0.60;0.60;;;11.50;99.90;;;;;;5032436;28;20032;-43
2024/01/24 05:27:38;;;;;;;0.40;0.40;;;11.40;99.90;;;;;;5032184;28;20029;-45
2024/01/24 05:30:04;;;;;;;2.28;0.52;;;11.50;99.90;;;;;;5015539;28;20495;-41
2024/01/24 05:32:29;;;;;;;0.98;0.98;;;11.50;99.90;;;;;;5032425;28;20022;-43
2024/01/24 05:34:55;;;;;;;1.85;0.85;;;11.50;99.90;;;;;;5032262;28;20395;-43
2024/01/24 05:37:21;;;;;;;1.63;0.50;;;11.50;99.90;;;;;;5031880;28;20037;-46
2024/01/24 05:39:47;;;;;;;0.32;0.32;;;11.50;99.90;;;;;;5032015;28;20027;-47
2024/01/24 05:42:12;;;;;;;0.98;0.95;;;11.50;99.90;;;;;;5032079;28;20052;-43
2024/01/24 05:44:38;;;;;;;1.63;0.57;;;11.50;99.90;;;;;;5014359;28;20106;-44
2024/01/24 05:47:04;;;;;;;0.40;0.40;;;11.60;99.90;;;;;;5031743;28;20091;-43
2024/01/24 05:49:29;;;;;;;0.65;0.60;;;11.60;99.90;;;;;;5031825;28;20033;-43
2024/01/24 05:51:55;;;;;;;0.65;0.60;;;11.60;99.90;;;;;;5032451;28;20030;-44
2024/01/24 05:54:21;;;;;;;0.43;0.43;;;11.60;99.90;;;;;;5031777;28;20056;-43
2024/01/24 05:56:47;;;;;;;0.52;0.50;;;11.60;99.90;;;;;;5031488;28;20091;-45
2024/01/24 05:59:12;;;;;;;0.52;0.52;;;11.60;99.90;;;;;;5044879;23;20499;-50
2024/01/24 06:01:37;;;;;;;0.50;0.50;;;11.60;99.90;;;;;;5012137;28;20029;-53
2024/01/24 06:04:03;;;;;;;0.77;0.60;;;11.60;99.90;;;;;;5003831;28;20031;-54
2024/01/24 06:06:29;;;;;;;2.25;0.50;;;11.60;99.90;;;;;;5007644;28;20515;-52
2024/01/24 06:08:54;;;;;;;1.65;0.50;;;11.60;99.90;;;;;;5005304;28;20072;-52
2024/01/24 06:11:20;;;;;;;0.35;0.35;;;11.60;99.90;;;;;;5010524;28;20112;-59
2024/01/24 06:13:45;;;;;;;0.30;0.30;;;11.60;99.90;;;;;;5011849;28;20038;-53
2024/01/24 06:16:11;;;;;;;0.40;0.40;;;11.70;99.90;;;;;;5011996;28;20026;-51
2024/01/24 06:18:36;;;;;;;0.30;0.30;;;11.70;99.90;;;;;;5011176;28;20048;-52
2024/01/24 06:21:02;;;;;;;0.30;0.30;;;11.70;99.90;;;;;;5012192;28;20391;-58
2024/01/24 06:23:27;;;;;;;0.50;0.50;;;11.80;99.90;;;;;;5011894;28;20029;-53
2024/01/24 06:25:53;;;;;;;0.50;0.50;;;11.80;99.90;;;;;;5010548;28;20033;-53
2024/01/24 06:28:19;;;;;;;0.45;0.40;;;11.80;99.90;;;;;;5011661;28;20029;-56
2024/01/24 06:30:44;;;;;;;0.70;0.70;;;11.90;99.90;;;;;;5011719;28;20032;-60
2024/01/24 06:33:12;;;;;;;0.40;0.40;;;11.90;99.90;;;;;;5011943;28;20033;-51
2024/01/24 06:35:37;;;;;;;0.40;0.40;;;11.90;99.90;;;;;;5011827;28;20073;-53
2024/01/24 06:38:03;;;;;;;1.23;0.47;;;11.90;99.90;;;;;;5011501;28;20530;-52
2024/01/24 06:40:29;;;;;;;1.70;0.40;;;12.00;99.90;;;;;;5011554;28;20390;-56
2024/01/24 06:42:54;;;;;;;0.65;0.32;;;12.00;99.90;;;;;;5011722;28;20032;-52
2024/01/24 06:45:20;;;;;;;0.82;0.40;;;12.00;99.90;;;;;;5010727;28;20018;-51
2024/01/24 06:47:45;;;;;;;0.45;0.30;;;12.00;99.90;;;;;;5011366;28;20553;-55
2024/01/24 06:50:13;;;;;;;0.50;0.50;;;12.00;99.90;;;;;;5011600;28;20093;-55
2024/01/24 06:52:41;;;;;;;1.70;0.38;;;12.10;99.90;;;;;;5011782;28;20103;-49
2024/01/24 06:55:08;;;;;;;0.30;0.30;;;12.10;99.90;;;;;;5010175;28;20060;-54
2024/01/24 06:57:34;;;;;;;1.85;0.45;;;12.00;99.90;;;;;;5011411;28;20364;-53
2024/01/24 07:00:00;;;;;;;0.40;0.40;;;12.10;99.90;;;;;;5011367;28;20109;-53
2024/01/24 07:02:26;;;;;;;0.30;0.30;;;12.10;99.90;;;;;;5010544;28;20034;-54
2024/01/24 07:04:51;;;;;;;0.30;0.30;;;12.20;99.90;;;;;;5011774;28;20463;-55
2024/01/24 07:07:17;;;;;;;0.85;0.40;;;12.20;99.90;;;;;;5011296;28;20030;-54
2024/01/24 07:09:42;;;;;;;0.28;0.28;;;12.20;99.90;;;;;;5011306;28;20028;-50
2024/01/24 07:12:08;;;;;;;0.30;0.30;;;12.20;99.90;;;;;;5011399;28;20026;-55
2024/01/24 07:14:34;;;;;;;0.60;0.38;;;12.30;99.90;;;;;;5011478;28;20030;-50
2024/01/24 07:17:00;;;;;;;2.08;0.35;;;12.30;99.90;;;;;;5011254;28;20022;-52
2024/01/24 07:19:25;;;;;;;0.57;0.40;;;12.30;99.90;;;;;;5010123;28;20025;-52
2024/01/24 07:21:51;;;;;;;1.00;0.70;;;12.20;99.90;;;;;;5010242;28;20459;-53
2024/01/24 07:24:17;;;;;;;0.40;0.30;;;12.30;99.90;;;;;;5011655;28;20475;-50
2024/01/24 07:26:43;;;;;;;0.38;0.38;;;12.30;99.90;;;;;;5011532;28;20041;-56
2024/01/24 07:29:10;;;;;;;0.60;0.60;;;12.30;99.90;;;;;;5013150;28;20022;-53
2024/01/24 07:31:36;;;;;;;0.40;0.40;;;12.30;99.90;;;;;;5015076;28;20049;-56
2024/01/24 07:34:02;;;;;;;0.52;0.40;;;12.40;99.90;;;;;;5014892;28;20514;-57
2024/01/24 07:36:27;;;;;;;0.30;0.30;;;12.40;99.90;;;;;;5014747;28;20017;-55
2024/01/24 07:38:53;;;;;;;0.25;0.25;;;12.40;99.90;;;;;;5014515;28;20033;-54
2024/01/24 07:41:18;;;;;;;0.20;0.20;;;12.50;99.90;;;;;;5013698;28;20407;-53
2024/01/24 07:43:44;;;;;;;0.50;0.40;;;12.50;99.90;;;;;;5013541;28;20030;-52
2024/01/24 07:46:09;;;;;;;0.30;0.30;;;12.70;99.90;;;;;;5014846;28;20030;-54
2024/01/24 07:48:35;;;;;;;0.30;0.30;;;12.90;99.90;;;;;;5007332;28;20057;-56
2024/01/24 07:51:01;;;;;;;0.30;0.30;;;13.00;99.90;;;;;;4994909;28;20057;-52
2024/01/24 07:53:27;;;;;;;0.30;0.30;;;13.10;99.90;;;;;;5001406;28;20466;-54
2024/01/24 07:55:53;;;;;;;0.20;0.20;;;13.10;99.90;;;;;;5013231;28;20491;-54
2024/01/24 07:58:18;;;;;;;0.30;0.30;;;13.10;99.90;;;;;;5013205;28;20026;-53
2024/01/24 08:00:44;;;;;;;0.30;0.30;;;13.10;99.90;;;;;;5014401;28;20040;-56
2024/01/24 08:03:09;;;;;;;0.43;0.40;;;13.10;99.90;;;;;;5014402;28;20386;-53
2024/01/24 08:05:35;;;;;;;0.20;0.20;;;13.00;99.90;;;;;;5010055;28;20025;-54
2024/01/24 08:08:01;;;;;;;2.63;0.32;;;13.00;99.90;;;;;;4994684;28;20403;-53
2024/01/24 08:10:27;;;;;;;0.35;0.35;;;13.10;99.90;;;;;;4994958;28;20050;-53
2024/01/24 08:12:52;;;;;;;0.47;0.47;;;13.10;99.90;;;;;;5003241;28;20069;-52
2024/01/24 08:15:18;;;;;;;0.30;0.30;;;13.10;99.90;;;;;;4998604;28;20517;-58
2024/01/24 08:17:45;;;;;;;0.30;0.30;;;13.10;99.90;;;;;;4994728;28;20033;-55
2024/01/24 08:20:11;;;;;;;1.85;0.40;;;13.10;99.90;;;;;;4994766;28;20015;-54
2024/01/24 08:22:37;;;;;;;1.25;0.75;;;13.20;99.90;;;;;;4995196;28;20121;-53
2024/01/24 08:25:03;;;;;;;0.30;0.30;;;13.20;99.90;;;;;;5004346;28;20050;-63
2024/01/24 08:27:28;;;;;;;0.30;0.30;;;13.20;99.90;;;;;;5007876;28;20068;-58
2024/01/24 08:29:54;;;;;;;0.35;0.35;;;13.20;99.90;;;;;;5015862;28;20515;-52
2024/01/24 08:32:20;;;;;;;0.40;0.40;;;13.10;99.90;;;;;;5015785;28;20120;-56
2024/01/24 08:34:45;;;;;;;0.40;0.40;;;13.20;99.90;;;;;;5002108;28;20030;-55
2024/01/24 08:37:12;;;;;;;0.20;0.20;;;13.10;99.90;;;;;;5008224;28;20022;-52
2024/01/24 08:39:39;;;;;;;0.38;0.38;;;13.20;99.90;;;;;;4997294;28;20073;-51
2024/01/24 08:42:05;;;;;;;2.95;0.80;;;13.20;99.90;;;;;;4996454;28;20026;-56
2024/01/24 08:44:31;;;;;;;2.45;0.40;;;13.20;99.90;;;;;;4997935;28;20088;-54
2024/01/24 08:46:56;;;;;;;2.55;0.50;;;13.20;99.90;;;;;;4997355;28;20034;-54
2024/01/24 08:49:21;;;;;;;0.30;0.30;;;13.30;99.90;;;;;;4997390;28;20030;-52
2024/01/24 08:51:47;;;;;;;0.68;0.50;;;13.30;99.90;;;;;;4996014;28;20022;-54
2024/01/24 08:54:13;;;;;;;1.58;0.60;;;13.50;99.90;;;;;;4997324;28;20026;-55
2024/01/24 08:56:39;;;;;;;3.38;0.68;;;13.60;99.90;;;;;;4995825;28;20082;-49
2024/01/24 08:59:05;;;;;;;1.75;0.73;;;13.80;99.90;;;;;;4997011;28;20034;-53
2024/01/24 09:01:32;;;;;;;2.00;0.50;;;;;;;;;;4995985;28;20395;-52
2024/01/24 09:03:57;;;;;;;1.08;0.70;;;14.10;99.90;;;;;;4997567;28;20062;-53
2024/01/24 09:06:25;;;;;;;3.53;0.63;;;14.10;99.90;;;;;;4998821;28;20058;-51
2024/01/24 09:08:52;;;;;;;2.25;0.80;;;14.10;99.90;;;;;;4999103;28;20557;-58
2024/01/24 09:11:18;;;;;;;3.92;0.88;;;14.20;99.90;;;;;;5007585;28;20030;-56
2024/01/24 09:13:45;;;;;;;3.65;0.98;;;14.20;99.90;;;;;;5010488;28;20034;-56
2024/01/24 09:16:10;;;;;;;4.65;1.48;;;14.30;99.90;;;;;;4993837;28;20026;-57
2024/01/24 09:18:36;;;;;;;2.42;1.02;;;14.30;99.90;;;;;;4991664;28;20100;-56
2024/01/24 09:21:01;;;;;;;5.38;0.77;;;14.50;99.90;;;;;;4991879;28;20022;-52
2024/01/24 09:23:27;;;;;;;3.58;1.08;;;14.60;99.90;;;;;;4992676;28;20045;-55
2024/01/24 09:25:52;;;;;;;4.60;1.00;;;14.90;99.90;;;;;;5004216;28;20080;-55
2024/01/24 09:28:18;;;;;;;5.47;0.85;;;15.10;99.90;;;;;;5004885;28;20034;-53
2024/01/24 09:30:43;;;;;;;4.32;0.90;;;15.20;99.90;;;;;;4993962;28;20026;-52
2024/01/24 09:33:09;;;;;;;4.57;1.38;;;15.20;99.90;;;;;;4998475;28;20484;-57
2024/01/24 09:35:35;;;;;;;5.97;1.50;;;15.30;99.90;;;;;;5012814;28;20030;-53
2024/01/24 09:38:00;;;;;;;4.72;1.08;;;15.40;99.90;;;;;;5010295;28;20018;-58
2024/01/24 09:40:26;;;;;;;6.95;1.10;;;15.40;99.90;;;;;;5014475;28;20113;-52
2024/01/24 09:42:51;;;;;;;5.88;1.38;;;15.50;99.90;;;;;;5012542;28;20391;-54
2024/01/24 09:45:18;;;;;;;5.53;1.38;;;15.50;99.90;;;;;;5012051;28;20563;-55
2024/01/24 09:47:45;;;;;;;2.38;1.20;;;15.40;99.90;;;;;;4992555;28;20086;-48
2024/01/24 09:50:11;;;;;;;3.38;1.35;;;15.60;99.90;;;;;;4994996;28;20496;-46
2024/01/24 09:52:38;;;;;;;7.30;1.85;;;15.70;99.90;;;;;;5012097;28;20054;-48
2024/01/24 09:55:06;;;;;;;7.43;1.42;;;15.80;99.90;;;;;;5005947;28;20419;-49
2024/01/24 09:57:33;;;;;;;8.00;1.35;;;15.70;99.90;;;;;;4997607;28;20053;-54
2024/01/24 09:59:59;;;;;;;7.22;1.63;;;15.80;99.90;;;;;;4993160;28;20073;-52
2024/01/24 10:02:27;;;;;;;8.40;1.80;;;15.80;99.90;;;;;;4994693;28;20321;-49
2024/01/24 10:04:53;;;;;;;6.32;1.58;;;15.90;99.90;;;;;;4994893;28;20030;-50
2024/01/24 10:07:19;;;;;;;5.05;1.75;;;15.70;99.90;;;;;;4994016;28;20186;-50
2024/01/24 10:09:46;;;;;;;6.65;2.10;;;15.90;99.90;;;;;;4993017;28;20038;-53
2024/01/24 10:12:11;;;;;;;9.45;2.85;;;15.90;99.90;;;;;;4994350;28;20030;-46
2024/01/24 10:14:40;;;;;;;5.45;1.52;;;16.00;99.90;;;;;;4994222;28;20557;-50
2024/01/24 10:17:09;;;;;;;11.00;2.00;;;15.80;99.90;;;;;;5014112;28;20026;-52
2024/01/24 10:19:34;;;;;;;7.25;1.65;;;15.50;99.90;;;;;;5013380;28;20030;-50
2024/01/24 10:22:00;;;;;;;14.15;2.33;;;15.20;99.90;;;;;;5014263;28;20018;-52
2024/01/24 10:24:26;;;;;;;6.65;3.05;;;14.90;99.90;;;;;;5016224;28;20029;-51
2024/01/24 10:26:52;;;;;;;8.45;2.00;;;14.80;99.90;;;;;;5017738;28;20443;-52
2024/01/24 10:29:17;;;;;;;9.70;2.17;;;14.60;99.90;;;;;;5017177;28;20065;-52
2024/01/24 10:31:43;;;;;;;8.82;2.58;;;14.50;99.90;;;;;;5012943;28;20033;-49
2024/01/24 10:34:08;;;;;;;11.43;3.63;;;14.40;99.90;;;;;;5014191;28;20033;-49
2024/01/24 10:36:35;;;;;;;10.40;2.97;;;14.40;99.90;;;;;;5014597;28;20105;-51
2024/01/24 10:39:05;;;;;;;12.00;2.85;;;14.30;99.90;;;;;;5014413;28;20030;-49
2024/01/24 10:41:32;;;;;;;15.27;2.75;;;14.30;99.90;;;;;;5014141;28;20026;-50
2024/01/24 10:44:10;;;;;;;13.63;3.17;;;14.20;99.90;;;;;;5014225;28;20057;-54
2024/01/24 10:46:40;;;;;;;14.90;3.03;;;14.20;99.90;;;;;;5007212;28;20109;-50
2024/01/24 10:49:09;;;;;;;7.72;2.50;;;14.20;99.90;;;;;;5024891;28;20030;-51
2024/01/24 10:51:35;;;;;;;14.70;2.50;;;14.10;99.90;;;;;;5015634;28;20030;-51
2024/01/24 10:54:03;;;;;;;10.52;2.58;;;14.10;99.90;;;;;;4995701;28;20045;-51
2024/01/24 10:56:29;;;;;;;14.02;2.50;;;14.00;99.90;;;;;;4996120;28;20109;-49
2024/01/24 10:58:56;;;;;;;10.77;2.28;;;14.00;99.90;;;;;;4997784;28;20065;-51
2024/01/24 11:01:22;;;;;;;11.90;2.83;;;14.10;99.90;;;;;;5010235;28;20022;-53
2024/01/24 11:03:50;;;;;;;8.57;2.38;;;14.20;99.90;;;;;;4997629;28;20407;-50
2024/01/24 11:06:18;;;;;;;14.40;2.80;;;14.20;99.90;;;;;;5001809;28;20022;-55
2024/01/24 11:08:56;;;;;;;17.08;2.55;;;14.30;99.90;;;;;;5002842;28;20061;-51
2024/01/24 11:11:23;;;;;;;17.85;2.80;;;14.40;99.90;;;;;;4997263;28;20057;-45
2024/01/24 11:13:51;;;;;;;13.93;3.78;;;14.40;99.90;;;;;;4996303;28;20029;-50
2024/01/24 11:16:45;;;;;;;17.00;3.70;;;14.50;99.90;;;;;;5000323;28;20403;-52
2024/01/24 11:19:22;;;;;;;18.40;4.50;;;14.40;99.90;;;;;;5008447;28;20030;-49
2024/01/24 11:21:48;;;;;;;18.00;3.75;;;14.30;99.90;;;;;;4995722;28;20030;-56
2024/01/24 11:24:49;;;;;;;11.50;3.70;;;14.30;99.90;;;;;;4995609;28;20038;-53
2024/01/24 11:27:32;;;;;;;12.77;2.70;;;14.20;99.90;;;;;;5007300;28;20553;-52
2024/01/24 11:30:01;;;;;;;13.77;2.70;;;14.00;99.90;;;;;;5014010;28;20040;-59
2024/01/24 11:32:59;;;;;;;17.70;4.30;;;13.90;99.90;;;;;;5009818;28;20110;-55
2024/01/24 11:35:34;;;;;;;13.95;3.30;;;13.90;99.90;;;;;;4998905;28;20055;-53
2024/01/24 11:38:03;;;;;;;17.92;3.70;;;14.00;99.90;;;;;;5012425;28;20037;-53
2024/01/24 11:40:34;;;;;;;8.60;2.78;;;13.90;99.90;;;;;;4994196;28;20033;-51
2024/01/24 11:43:00;;;;;;;12.82;3.13;;;13.90;99.90;;;;;;5002440;28;20026;-57
2024/01/24 11:45:27;;;;;;;22.25;3.85;;;13.80;99.90;;;;;;5008091;28;20042;-54
2024/01/24 11:47:53;;;;;;;19.30;3.63;;;13.70;99.90;;;;;;4991847;28;20030;-50
2024/01/24 11:50:19;;;;;;;12.68;2.28;;;13.80;99.90;;;;;;5002005;28;20032;-50
2024/01/24 11:52:45;;;;;;;13.82;2.90;;;13.70;99.90;;;;;;5012656;28;20022;-53
2024/01/24 11:55:11;;;;;;;12.80;3.42;;;13.70;99.90;;;;;;4999528;28;20037;-50
2024/01/24 11:57:37;;;;;;;16.98;3.40;;;13.70;99.90;;;;;;4994972;28;20026;-49
2024/01/24 12:00:06;;;;;;;9.40;2.53;;;13.60;99.90;;;;;;5006145;28;20495;-54
2024/01/24 12:02:35;;;;;;;18.17;3.72;;;13.70;99.90;;;;;;5011010;28;20052;-51
2024/01/24 12:05:01;;;;;;;14.82;3.17;;;13.70;99.90;;;;;;4995758;28;20034;-53
2024/01/24 12:07:27;;;;;;;14.75;4.05;;;13.70;99.90;;;;;;4995294;28;20077;-52
2024/01/24 12:09:53;;;;;;;19.85;3.03;;;13.70;99.90;;;;;;4995310;28;20380;-49
2024/01/24 12:12:19;;;;;;;13.70;3.92;;;13.70;99.90;;;;;;4999978;28;20037;-53
2024/01/24 12:14:48;;;;;;;12.70;2.70;;;13.70;99.90;;;;;;4997219;28;20026;-53
2024/01/24 12:17:13;;;;;;;16.35;3.80;;;13.60;99.90;;;;;;5004670;28;20030;-49
2024/01/24 12:19:43;;;;;;;18.45;3.55;;;13.60;99.90;;;;;;5011570;28;20399;-49
2024/01/24 12:22:09;;;;;;;16.55;4.68;;;13.60;99.90;;;;;;5012569;28;20026;-48
2024/01/24 12:24:41;;;;;;;14.63;2.97;;;13.50;99.90;;;;;;5013335;28;20545;-49
2024/01/24 12:27:08;;;;;;;18.85;3.70;;;13.50;99.90;;;;;;4995520;28;20034;-48
2024/01/24 12:29:33;;;;;;;10.80;2.72;;;13.40;99.90;;;;;;4994404;28;20554;-48
2024/01/24 12:32:05;;;;;;;23.50;3.40;;;13.40;99.90;;;;;;4994423;28;20034;-48
2024/01/24 12:34:30;;;;;;;15.18;3.15;;;13.50;99.90;;;;;;4993108;28;20026;-52
2024/01/24 12:36:57;;;;;;;18.98;3.67;;;13.50;99.90;;;;;;4993189;28;20028;-55
2024/01/24 12:39:32;;;;;;;14.70;3.78;;;13.50;99.90;;;;;;4992466;28;20089;-50
2024/01/24 12:41:59;;;;;;;16.60;3.30;;;13.60;99.90;;;;;;4994389;28;20121;-49
2024/01/24 12:44:24;;;;;;;14.32;2.85;;;13.70;99.90;;;;;;4993862;28;20508;-51
2024/01/24 12:46:58;;;;;;;15.80;3.53;;;13.70;99.90;;;;;;5002479;28;20036;-49